createdAt,value
2022-12-18T00:02:00.743Z,-4.03
2022-12-18T00:04:47.594Z,-3.97
2022-12-18T00:07:33.669Z,-3.88
2022-12-18T00:10:20.147Z,-3.89
2022-12-18T00:13:09.820Z,-3.92
2022-12-18T00:15:57.028Z,-3.96
2022-12-18T00:18:44.202Z,-4.02
2022-12-18T00:21:31.109Z,-4.02
2022-12-18T00:24:17.590Z,-4.04
2022-12-18T00:27:03.931Z,-4.03
2022-12-18T00:29:50.587Z,-4.07
2022-12-18T00:32:37.061Z,-4.12
2022-12-18T00:35:23.586Z,-4.13
2022-12-18T00:38:09.733Z,-4.15
2022-12-18T00:40:55.700Z,-4.14
2022-12-18T00:43:42.269Z,-4.15
2022-12-18T00:46:28.486Z,-4.18
2022-12-18T00:49:15.947Z,-4.16
2022-12-18T00:52:02.401Z,-4.16
2022-12-18T00:54:48.675Z,-4.12
2022-12-18T00:57:35.022Z,-4.04
2022-12-18T01:00:21.918Z,-3.96
2022-12-18T01:03:08.334Z,-3.86
2022-12-18T01:05:54.568Z,-3.78
2022-12-18T01:08:41.027Z,-3.74
2022-12-18T01:11:27.705Z,-3.73
2022-12-18T01:14:14.210Z,-3.87
2022-12-18T01:17:00.721Z,-3.87
2022-12-18T01:19:47.352Z,-3.88
2022-12-18T01:22:33.678Z,-3.89
2022-12-18T01:25:20.138Z,-3.95
2022-12-18T01:28:06.760Z,-3.96
2022-12-18T01:30:52.688Z,-3.97
2022-12-18T01:33:39.423Z,-3.96
2022-12-18T01:36:28.154Z,-3.97
2022-12-18T01:39:14.766Z,-3.98
2022-12-18T01:42:03.317Z,-3.98
2022-12-18T01:44:56.404Z,-4.01
2022-12-18T01:47:59.155Z,-4.03
2022-12-18T01:50:45.636Z,-3.98
2022-12-18T01:53:32.191Z,-3.93
2022-12-18T01:56:19.860Z,-3.90
2022-12-18T01:59:07.142Z,-3.75
2022-12-18T02:01:53.914Z,-3.66
2022-12-18T02:04:49.166Z,-3.60
2022-12-18T02:07:44.486Z,-3.60
2022-12-18T02:10:35.714Z,-3.65
2022-12-18T02:13:29.566Z,-3.66
2022-12-18T02:16:49.335Z,-3.65
2022-12-18T02:19:42.090Z,-3.68
2022-12-18T02:22:40.783Z,-3.71
2022-12-18T02:26:04.572Z,-3.69
2022-12-18T02:28:57.518Z,-3.72
2022-12-18T02:31:46.547Z,-3.77
2022-12-18T02:34:34.012Z,-3.82
2022-12-18T02:37:20.640Z,-3.89
2022-12-18T02:40:07.510Z,-3.94
2022-12-18T02:42:53.984Z,-3.91
2022-12-18T02:45:57.087Z,-3.87
2022-12-18T02:48:43.204Z,-3.83
2022-12-18T02:51:38.827Z,-3.78
2022-12-18T02:55:06.347Z,-3.69
2022-12-18T02:57:58.055Z,-3.72
2022-12-18T03:00:50.046Z,-3.81
2022-12-18T03:03:39.991Z,-3.86
2022-12-18T03:06:29.223Z,-3.90
2022-12-18T03:09:19.003Z,-3.95
2022-12-18T03:12:25.235Z,-3.99
2022-12-18T03:15:20.594Z,-3.94
2022-12-18T03:18:28.627Z,-3.87
2022-12-18T03:21:15.320Z,-3.89
2022-12-18T03:24:01.516Z,-3.94
2022-12-18T03:26:49.031Z,-4.03
2022-12-18T03:29:38.839Z,-3.99
2022-12-18T03:32:28.226Z,-3.92
2022-12-18T03:35:19.781Z,-3.87
2022-12-18T03:38:06.491Z,-3.85
2022-12-18T03:41:00.913Z,-3.89
2022-12-18T03:43:53.212Z,-3.95
2022-12-18T03:46:52.587Z,-3.96
2022-12-18T03:49:44.915Z,-3.84
2022-12-18T03:52:34.251Z,-3.75
2022-12-18T03:55:20.954Z,-3.82
2022-12-18T03:58:07.228Z,-3.83
2022-12-18T04:00:54.259Z,-3.76
2022-12-18T04:03:41.261Z,-3.72
2022-12-18T04:06:27.988Z,-3.75
2022-12-18T04:09:14.728Z,-3.78
2022-12-18T04:12:00.744Z,-3.86
2022-12-18T04:14:47.120Z,-3.94
2022-12-18T04:17:33.144Z,-3.93
2022-12-18T04:20:19.533Z,-3.98
2022-12-18T04:23:06.187Z,-4.03
2022-12-18T04:25:52.447Z,-4.07
2022-12-18T04:28:39.027Z,-4.09
2022-12-18T04:31:25.468Z,-4.17
2022-12-18T04:34:11.722Z,-4.17
2022-12-18T04:36:58.135Z,-4.15
2022-12-18T04:39:45.538Z,-4.08
2022-12-18T04:42:31.736Z,-4.07
2022-12-18T04:45:18.435Z,-4.11
2022-12-18T04:48:04.803Z,-4.17
2022-12-18T04:50:50.898Z,-4.15
2022-12-18T04:53:37.563Z,-4.21
2022-12-18T04:56:24.000Z,-4.26
2022-12-18T04:59:10.676Z,-4.28
2022-12-18T05:01:57.157Z,-4.28
2022-12-18T05:04:43.325Z,-4.23
2022-12-18T05:07:29.633Z,-4.18
2022-12-18T05:10:16.016Z,-4.21
2022-12-18T05:13:02.674Z,-4.21
2022-12-18T05:15:52.812Z,-4.22
2022-12-18T05:18:39.160Z,-4.19
2022-12-18T05:21:25.805Z,-4.18
2022-12-18T05:24:12.602Z,-4.21
2022-12-18T05:26:59.224Z,-4.28
2022-12-18T05:29:45.853Z,-4.28
2022-12-18T05:32:32.493Z,-4.25
2022-12-18T05:35:19.037Z,-4.30
2022-12-18T05:38:05.232Z,-4.37
2022-12-18T05:40:52.077Z,-4.33
2022-12-18T05:43:41.389Z,-4.30
2022-12-18T05:46:27.866Z,-4.37
2022-12-18T05:49:14.219Z,-4.47
2022-12-18T05:52:00.583Z,-4.60
2022-12-18T05:54:47.091Z,-4.64
2022-12-18T05:57:33.528Z,-4.65
2022-12-18T06:00:20.156Z,-4.64
2022-12-18T06:03:07.243Z,-4.63
2022-12-18T06:05:53.363Z,-4.61
2022-12-18T06:08:45.835Z,-4.61
2022-12-18T06:11:33.045Z,-4.62
2022-12-18T06:14:19.327Z,-4.64
2022-12-18T06:17:05.967Z,-4.61
2022-12-18T06:19:52.075Z,-4.53
2022-12-18T06:22:38.542Z,-4.53
2022-12-18T06:25:25.135Z,-4.58
2022-12-18T06:28:11.655Z,-4.57
2022-12-18T06:30:58.331Z,-4.57
2022-12-18T06:33:44.820Z,-4.60
2022-12-18T06:36:31.250Z,-4.67
2022-12-18T06:39:18.032Z,-4.73
2022-12-18T06:42:04.453Z,-4.72
2022-12-18T06:44:51.234Z,-4.77
2022-12-18T06:47:38.062Z,-4.87
2022-12-18T06:50:24.614Z,-4.89
2022-12-18T06:53:11.188Z,-4.86
2022-12-18T06:56:09.408Z,-4.81
2022-12-18T06:58:56.690Z,-4.75
2022-12-18T07:01:43.130Z,-4.76
2022-12-18T07:04:30.736Z,-4.71
2022-12-18T07:07:16.980Z,-4.76
2022-12-18T07:10:04.067Z,-4.79
2022-12-18T07:12:50.200Z,-4.73
2022-12-18T07:15:36.563Z,-4.65
2022-12-18T07:18:23.112Z,-4.59
2022-12-18T07:21:14.830Z,-4.56
2022-12-18T07:24:01.371Z,-4.60
2022-12-18T07:26:47.812Z,-4.66
2022-12-18T07:29:34.283Z,-4.60
2022-12-18T07:32:20.779Z,-4.55
2022-12-18T07:35:07.349Z,-4.54
2022-12-18T07:37:53.774Z,-4.45
2022-12-18T07:40:40.071Z,-4.51
2022-12-18T07:43:26.443Z,-4.57
2022-12-18T07:46:14.905Z,-4.55
2022-12-18T07:49:01.464Z,-4.51
2022-12-18T07:51:50.147Z,-4.55
2022-12-18T07:54:36.632Z,-4.61
2022-12-18T07:57:48.769Z,-4.68
2022-12-18T08:00:29.193Z,-4.64
2022-12-18T08:03:16.094Z,-4.53
2022-12-18T08:06:03.397Z,-4.50
2022-12-18T08:08:49.486Z,-4.40
2022-12-18T08:11:36.320Z,-4.30
2022-12-18T08:14:22.916Z,-4.40
2022-12-18T08:17:08.965Z,-4.47
2022-12-18T08:19:55.353Z,-4.48
2022-12-18T08:22:43.172Z,-4.45
2022-12-18T08:25:29.397Z,-4.46
2022-12-18T08:28:18.596Z,-4.47
2022-12-18T08:31:05.443Z,-4.41
2022-12-18T08:33:52.406Z,-4.30
2022-12-18T08:36:38.766Z,-4.15
2022-12-18T08:39:24.882Z,-3.99
2022-12-18T08:42:29.719Z,-3.94
2022-12-18T08:45:17.695Z,-4.00
2022-12-18T08:48:04.240Z,-4.05
2022-12-18T08:50:56.928Z,-4.07
2022-12-18T08:53:43.612Z,-4.00
2022-12-18T08:56:30.994Z,-4.03
2022-12-18T08:59:20.041Z,-4.00
2022-12-18T09:02:06.588Z,-3.93
2022-12-18T09:04:57.385Z,-3.87
2022-12-18T09:07:44.258Z,-3.84
2022-12-18T09:10:31.129Z,-3.79
2022-12-18T09:13:17.994Z,-3.70
2022-12-18T09:16:04.933Z,-3.60
2022-12-18T09:18:50.948Z,-3.52
2022-12-18T09:21:44.798Z,-3.51
2022-12-18T09:24:34.370Z,-3.55
2022-12-18T09:27:20.497Z,-3.59
2022-12-18T09:30:27.645Z,-3.56
2022-12-18T09:33:14.758Z,-3.54
2022-12-18T09:36:02.388Z,-3.51
2022-12-18T09:38:49.088Z,-3.40
2022-12-18T09:41:55.777Z,-3.42
2022-12-18T09:44:47.429Z,-3.30
2022-12-18T09:47:37.597Z,-3.30
2022-12-18T09:50:30.616Z,-3.30
2022-12-18T09:53:20.539Z,-3.29
2022-12-18T09:56:07.144Z,-3.30
2022-12-18T09:59:01.126Z,-3.38
2022-12-18T10:01:47.738Z,-3.38
2022-12-18T10:04:34.073Z,-3.23
2022-12-18T10:07:26.113Z,-3.35
2022-12-18T10:10:39.808Z,-3.28
2022-12-18T10:13:40.546Z,-3.25
2022-12-18T10:16:36.244Z,-3.12
2022-12-18T10:19:25.645Z,-3.09
2022-12-18T10:22:15.318Z,-3.09
2022-12-18T10:25:16.771Z,-3.03
2022-12-18T10:28:12.607Z,-3.04
2022-12-18T10:30:59.244Z,-3.08
2022-12-18T10:33:45.670Z,-3.21
2022-12-18T10:36:32.108Z,-3.13
2022-12-18T10:39:27.226Z,-3.36
2022-12-18T10:42:19.946Z,-3.33
2022-12-18T10:45:12.549Z,-3.38
2022-12-18T10:47:59.545Z,-3.35
2022-12-18T10:51:10.455Z,-3.34
2022-12-18T10:53:59.024Z,-3.27
2022-12-18T10:56:45.583Z,-3.14
2022-12-18T10:59:32.727Z,-3.11
2022-12-18T11:02:36.124Z,-3.08
2022-12-18T11:05:34.439Z,-3.12
2022-12-18T11:08:41.963Z,-3.25
2022-12-18T11:11:28.793Z,-3.28
2022-12-18T11:14:19.216Z,-3.31
2022-12-18T11:20:30.831Z,-3.31
2022-12-18T11:23:16.774Z,-3.48
2022-12-18T11:26:05.037Z,-3.43
2022-12-18T11:28:53.607Z,-3.40
2022-12-18T11:31:39.616Z,-3.31
2022-12-18T11:34:30.269Z,-3.59
2022-12-18T11:37:16.738Z,-3.60
2022-12-18T11:40:18.981Z,-3.53
2022-12-18T11:43:14.704Z,-3.36
2022-12-18T11:46:29.069Z,-3.41
2022-12-18T11:49:17.118Z,-3.36
2022-12-18T11:52:11.404Z,-3.59
2022-12-18T11:55:00.858Z,-3.50
2022-12-18T11:57:59.711Z,-3.32
2022-12-18T12:01:11.655Z,-3.51
2022-12-18T12:04:17.078Z,-3.57
2022-12-18T12:07:24.560Z,-3.53
2022-12-18T12:10:18.284Z,-3.31
2022-12-18T12:13:25.408Z,-3.31
2022-12-18T12:16:30.341Z,-3.43
2022-12-18T12:19:22.536Z,-3.64
2022-12-18T12:22:21.886Z,-3.74
2022-12-18T12:25:40.638Z,-3.72
2022-12-18T12:28:45.602Z,-3.69
2022-12-18T12:32:02.294Z,-3.83
2022-12-18T12:35:33.147Z,-3.69
2022-12-18T12:38:26.572Z,-3.77
2022-12-18T12:41:34.735Z,-3.84
2022-12-18T12:44:24.845Z,-3.77
2022-12-18T12:47:16.323Z,-3.70
2022-12-18T12:50:05.901Z,-3.53
2022-12-18T12:52:55.666Z,-3.37
2022-12-18T12:55:42.243Z,-3.36
2022-12-18T12:58:59.560Z,-3.43
2022-12-18T13:01:51.018Z,-3.40
2022-12-18T13:04:43.079Z,-3.42
2022-12-18T13:07:42.210Z,-3.53
2022-12-18T13:10:31.422Z,-3.73
2022-12-18T13:13:24.259Z,-3.88
2022-12-18T13:16:11.663Z,-3.88
2022-12-18T13:18:59.692Z,-4.02
2022-12-18T13:21:46.620Z,-4.07
2022-12-18T13:24:33.969Z,-4.04
2022-12-18T13:27:45.036Z,-3.98
2022-12-18T13:30:34.445Z,-3.94
2022-12-18T13:33:30.423Z,-3.93
2022-12-18T13:36:23.298Z,-3.90
2022-12-18T13:39:34.758Z,-3.89
2022-12-18T13:42:43.623Z,-4.03
2022-12-18T13:45:42.048Z,-4.17
2022-12-18T13:48:30.018Z,-4.26
2022-12-18T13:51:18.880Z,-4.27
2022-12-18T13:54:21.147Z,-4.29
2022-12-18T13:57:31.694Z,-4.31
2022-12-18T14:00:26.784Z,-4.31
2022-12-18T14:03:22.611Z,-4.40
2022-12-18T14:06:09.439Z,-4.46
2022-12-18T14:08:56.039Z,-4.52
2022-12-18T14:11:53.774Z,-4.50
2022-12-18T14:14:42.895Z,-4.53
2022-12-18T14:17:29.381Z,-4.65
2022-12-18T14:20:16.749Z,-4.77
2022-12-18T14:23:03.273Z,-4.86
2022-12-18T14:25:49.839Z,-4.84
2022-12-18T14:28:44.524Z,-4.85
2022-12-18T14:31:31.407Z,-4.85
2022-12-18T14:34:17.987Z,-4.91
2022-12-18T14:37:04.278Z,-4.92
2022-12-18T14:39:59.109Z,-4.92
2022-12-18T14:42:46.239Z,-5.02
2022-12-18T14:45:43.836Z,-5.07
2022-12-18T14:48:42.008Z,-5.17
2022-12-18T14:51:29.962Z,-5.17
2022-12-18T14:54:18.208Z,-5.20
2022-12-18T14:57:19.718Z,-5.24
2022-12-18T15:00:07.889Z,-5.23
2022-12-18T15:02:56.224Z,-5.21
2022-12-18T15:05:42.343Z,-5.20
2022-12-18T15:08:36.719Z,-5.23
2022-12-18T15:11:33.157Z,-5.26
2022-12-18T15:14:30.053Z,-5.30
2022-12-18T15:17:23.499Z,-5.32
2022-12-18T15:20:11.187Z,-5.30
2022-12-18T15:22:57.828Z,-5.31
2022-12-18T15:25:44.232Z,-5.34
2022-12-18T15:28:46.969Z,-5.48
2022-12-18T15:31:36.309Z,-5.50
2022-12-18T15:34:23.353Z,-5.58
2022-12-18T15:37:09.512Z,-5.57
2022-12-18T15:39:56.164Z,-5.60
2022-12-18T15:43:01.477Z,-5.60
2022-12-18T15:45:48.115Z,-5.62
2022-12-18T15:48:41.210Z,-5.68
2022-12-18T15:51:29.598Z,-5.63
2022-12-18T15:54:17.167Z,-5.61
2022-12-18T15:57:21.998Z,-5.63
2022-12-18T16:00:12.773Z,-5.68
2022-12-18T16:02:59.216Z,-5.72
2022-12-18T16:05:45.787Z,-5.72
2022-12-18T16:08:32.445Z,-5.77
2022-12-18T16:11:38.910Z,-5.86
2022-12-18T16:14:29.294Z,-5.87
2022-12-18T16:17:15.589Z,-5.91
2022-12-18T16:20:02.248Z,-5.91
2022-12-18T16:22:49.155Z,-5.99
2022-12-18T16:25:35.661Z,-6.08
2022-12-18T16:28:22.019Z,-6.09
2022-12-18T16:31:08.701Z,-6.07
2022-12-18T16:34:19.432Z,-6.06
2022-12-18T16:37:08.554Z,-6.15
2022-12-18T16:39:54.870Z,-6.27
2022-12-18T16:42:42.070Z,-6.29
2022-12-18T16:45:34.124Z,-6.31
2022-12-18T16:48:20.782Z,-6.34
2022-12-18T16:51:07.374Z,-6.34
2022-12-18T16:53:55.066Z,-6.37
2022-12-18T16:56:42.880Z,-6.40
2022-12-18T16:59:29.447Z,-6.38
2022-12-18T17:02:24.282Z,-6.46
2022-12-18T17:05:11.163Z,-6.52
2022-12-18T17:07:57.791Z,-6.54
2022-12-18T17:10:44.370Z,-6.53
2022-12-18T17:13:30.606Z,-6.61
2022-12-18T17:16:17.685Z,-6.63
2022-12-18T17:19:03.955Z,-6.72
2022-12-18T17:21:50.358Z,-6.81
2022-12-18T17:24:36.836Z,-6.87
2022-12-18T17:27:23.616Z,-6.89
2022-12-18T17:30:10.734Z,-6.89
2022-12-18T17:32:57.404Z,-6.96
2022-12-18T17:35:44.069Z,-7.01
2022-12-18T17:38:30.869Z,-7.01
2022-12-18T17:41:17.617Z,-7.00
2022-12-18T17:44:05.549Z,-7.06
2022-12-18T17:47:13.040Z,-7.07
2022-12-18T17:49:59.803Z,-7.13
2022-12-18T17:52:46.335Z,-7.16
2022-12-18T17:55:32.852Z,-7.19
2022-12-18T17:58:19.142Z,-7.21
2022-12-18T18:01:06.774Z,-7.19
2022-12-18T18:03:55.850Z,-7.20
2022-12-18T18:06:42.496Z,-7.20
2022-12-18T18:09:28.882Z,-7.27
2022-12-18T18:12:33.501Z,-7.22
2022-12-18T18:15:19.779Z,-7.20
2022-12-18T18:18:06.287Z,-7.18
2022-12-18T18:20:52.619Z,-7.17
2022-12-18T18:23:40.964Z,-7.17
2022-12-18T18:26:31.212Z,-7.21
2022-12-18T18:29:20.060Z,-7.21
2022-12-18T18:32:06.222Z,-7.20
2022-12-18T18:34:52.766Z,-7.21
2022-12-18T18:37:39.230Z,-7.25
2022-12-18T18:40:28.138Z,-7.26
2022-12-18T18:43:14.983Z,-7.27
2022-12-18T18:46:01.975Z,-7.23
2022-12-18T18:48:48.243Z,-7.21
2022-12-18T18:51:35.493Z,-7.19
2022-12-18T18:54:22.309Z,-7.20
2022-12-18T18:57:20.358Z,-7.24
2022-12-18T19:00:08.476Z,-7.29
2022-12-18T19:03:00.400Z,-7.32
2022-12-18T19:05:51.784Z,-7.37
2022-12-18T19:08:39.177Z,-7.41
2022-12-18T19:11:45.493Z,-7.45
2022-12-18T19:14:31.932Z,-7.52
2022-12-18T19:17:18.344Z,-7.54
2022-12-18T19:20:05.600Z,-7.56
2022-12-18T19:22:55.681Z,-7.58
2022-12-18T19:25:42.735Z,-7.61
2022-12-18T19:28:29.188Z,-7.63
2022-12-18T19:31:19.982Z,-7.67
2022-12-18T19:34:09.617Z,-7.68
2022-12-18T19:36:59.706Z,-7.68
2022-12-18T19:39:46.470Z,-7.67
2022-12-18T19:42:35.534Z,-7.67
2022-12-18T19:45:22.095Z,-7.74
2022-12-18T19:48:09.872Z,-7.81
2022-12-18T19:50:56.128Z,-7.82
2022-12-18T19:53:42.832Z,-7.82
2022-12-18T19:56:31.546Z,-7.78
2022-12-18T19:59:18.261Z,-7.77
2022-12-18T20:02:05.112Z,-7.80
2022-12-18T20:04:51.788Z,-7.79
2022-12-18T20:07:38.273Z,-7.79
2022-12-18T20:10:26.322Z,-7.79
2022-12-18T20:13:12.821Z,-7.78
2022-12-18T20:16:02.005Z,-7.81
2022-12-18T20:18:49.144Z,-7.81
2022-12-18T20:21:35.581Z,-7.75
2022-12-18T20:24:21.959Z,-7.79
2022-12-18T20:27:14.040Z,-7.80
2022-12-18T20:30:01.894Z,-7.82
2022-12-18T20:32:48.159Z,-7.84
2022-12-18T20:35:34.413Z,-7.81
2022-12-18T20:38:21.308Z,-7.82
2022-12-18T20:41:10.819Z,-7.84
2022-12-18T20:43:57.300Z,-7.80
2022-12-18T20:46:43.831Z,-7.84
2022-12-18T20:49:30.179Z,-7.91
2022-12-18T20:52:16.683Z,-7.94
2022-12-18T20:55:05.516Z,-7.90
2022-12-18T20:57:52.832Z,-7.92
2022-12-18T21:00:39.549Z,-7.91
2022-12-18T21:03:25.945Z,-7.95
2022-12-18T21:06:13.045Z,-7.94
2022-12-18T21:08:59.638Z,-7.94
2022-12-18T21:12:06.375Z,-7.90
2022-12-18T21:14:52.634Z,-7.91
2022-12-18T21:17:44.064Z,-7.91
2022-12-18T21:20:31.604Z,-7.95
2022-12-18T21:23:17.844Z,-7.95
2022-12-18T21:26:25.105Z,-7.93
2022-12-18T21:29:12.988Z,-7.87
2022-12-18T21:31:59.407Z,-7.89
2022-12-18T21:34:48.242Z,-7.94
2022-12-18T21:37:34.776Z,-7.95
2022-12-18T21:40:21.023Z,-7.91
2022-12-18T21:43:28.037Z,-7.89
2022-12-18T21:46:14.802Z,-7.86
2022-12-18T21:49:02.118Z,-7.82
2022-12-18T21:51:50.028Z,-7.78
2022-12-18T21:54:36.815Z,-7.69
2022-12-18T21:57:23.070Z,-7.62
2022-12-18T22:00:17.423Z,-7.60
2022-12-18T22:03:17.443Z,-7.59
2022-12-18T22:06:09.384Z,-7.55
2022-12-18T22:08:56.263Z,-7.58
2022-12-18T22:11:42.435Z,-7.58
2022-12-18T22:14:29.178Z,-7.58
2022-12-18T22:17:15.763Z,-7.57
2022-12-18T22:20:02.032Z,-7.54
2022-12-18T22:22:48.764Z,-7.53
2022-12-18T22:25:35.829Z,-7.52
2022-12-18T22:28:44.712Z,-7.57
2022-12-18T22:31:31.001Z,-7.54
2022-12-18T22:34:22.632Z,-7.49
2022-12-18T22:37:13.161Z,-7.48
2022-12-18T22:39:59.395Z,-7.48
2022-12-18T22:42:49.149Z,-7.52
2022-12-18T22:45:38.507Z,-7.51
2022-12-18T22:48:25.391Z,-7.55
2022-12-18T22:51:15.686Z,-7.53
2022-12-18T22:54:02.361Z,-7.52
2022-12-18T22:56:49.127Z,-7.51
2022-12-18T22:59:35.649Z,-7.53
2022-12-18T23:02:22.345Z,-7.55
2022-12-18T23:05:08.879Z,-7.57
2022-12-18T23:07:54.941Z,-7.62
2022-12-18T23:10:41.322Z,-7.60
2022-12-18T23:13:28.183Z,-7.57
2022-12-18T23:16:15.755Z,-7.60
2022-12-18T23:19:03.170Z,-7.69
2022-12-18T23:21:49.589Z,-7.76
2022-12-18T23:24:35.609Z,-7.84
2022-12-18T23:27:21.906Z,-7.92
2022-12-18T23:30:08.673Z,-7.93
2022-12-18T23:32:54.893Z,-8.02
2022-12-18T23:35:41.191Z,-8.05
2022-12-18T23:38:27.543Z,-8.02
2022-12-18T23:41:14.639Z,-8.06
2022-12-18T23:44:01.035Z,-8.11
2022-12-18T23:46:47.345Z,-8.18
2022-12-18T23:49:33.628Z,-8.19
2022-12-18T23:52:19.945Z,-8.17
2022-12-18T23:55:06.711Z,-8.18
2022-12-18T23:57:53.131Z,-8.18
